Time;durP1;ratioP1;P1;durP2;ratioP2;P2;SDS_P1;SDS_P2;PMS_P1;PMS_P2;Temp;Humidity;BMP_temperature;BMP_pressure;BME280_temperature;BME280_humidity;BME280_pressure;Samples;Min_cycle;Max_cycle;Signal;HPM_P1;HPM_P2
2023/12/26 00:01:49;;;;;;;1.10;0.30;;;11.10;99.90;;;;;;5028777;28;20110;-77
2023/12/26 00:04:16;;;;;;;0.20;0.20;;;11.00;99.90;;;;;;5033689;28;20625;-76
2023/12/26 00:06:46;;;;;;;0.22;0.20;;;11.10;99.90;;;;;;5010975;28;20071;-78
2023/12/26 00:09:13;;;;;;;4.57;0.47;;;11.10;99.90;;;;;;5005442;28;20110;-78
2023/12/26 00:11:44;;;;;;;0.50;0.30;;;11.10;99.90;;;;;;5011650;28;20051;-77
2023/12/26 00:14:12;;;;;;;0.38;0.30;;;11.10;99.90;;;;;;5020033;28;20045;-76
2023/12/26 00:16:43;;;;;;;0.30;0.30;;;11.00;99.90;;;;;;5014770;28;20052;-79
2023/12/26 00:19:10;;;;;;;0.20;0.20;;;11.00;99.90;;;;;;5008684;28;20049;-76
2023/12/26 00:21:38;;;;;;;0.20;0.20;;;10.90;99.90;;;;;;5015471;28;20050;-76
2023/12/26 00:24:05;;;;;;;0.25;0.20;;;10.90;99.90;;;;;;4998434;28;20041;-77
2023/12/26 00:26:32;;;;;;;0.40;0.30;;;10.90;99.90;;;;;;5020287;28;20052;-79
2023/12/26 00:29:01;;;;;;;0.22;0.20;;;10.90;99.90;;;;;;5036545;28;20139;-78
2023/12/26 00:31:28;;;;;;;1.25;0.28;;;10.90;99.90;;;;;;5032988;28;20740;-78
2023/12/26 00:33:54;;;;;;;0.68;0.30;;;10.90;99.90;;;;;;5038139;28;20091;-76
2023/12/26 00:36:22;;;;;;;0.30;0.30;;;10.90;99.90;;;;;;4997909;28;20055;-78
2023/12/26 00:38:49;;;;;;;0.20;0.20;;;10.90;99.90;;;;;;5007206;28;20037;-79
2023/12/26 00:41:16;;;;;;;0.25;0.25;;;10.90;99.90;;;;;;5017709;28;20103;-77
2023/12/26 00:43:43;;;;;;;0.40;0.30;;;10.90;99.90;;;;;;5054970;28;20033;-77
2023/12/26 00:46:10;;;;;;;0.20;0.20;;;10.80;99.90;;;;;;5034986;28;20115;-78
2023/12/26 00:48:39;;;;;;;0.25;0.25;;;10.80;99.90;;;;;;5036906;28;20584;-79
2023/12/26 00:51:06;;;;;;;0.32;0.30;;;10.90;99.90;;;;;;4998272;28;20160;-78
2023/12/26 00:53:33;;;;;;;0.47;0.47;;;10.80;99.90;;;;;;4998331;28;20156;-77
2023/12/26 00:55:59;;;;;;;0.32;0.32;;;10.80;99.90;;;;;;5013216;28;20095;-78
2023/12/26 00:58:27;;;;;;;0.63;0.30;;;10.80;99.90;;;;;;5012685;28;20415;-78
2023/12/26 01:00:53;;;;;;;0.40;0.40;;;10.80;99.90;;;;;;5026778;28;20397;-78
2023/12/26 01:03:22;;;;;;;0.30;0.30;;;10.90;99.90;;;;;;5047508;28;20054;-78
2023/12/26 01:05:50;;;;;;;0.30;0.30;;;10.80;99.90;;;;;;5025689;28;20103;-76
2023/12/26 01:08:20;;;;;;;0.40;0.40;;;10.90;99.90;;;;;;5026600;28;21002;-76
2023/12/26 01:10:47;;;;;;;2.00;0.60;;;10.90;99.90;;;;;;5004596;28;20451;-76
2023/12/26 01:13:14;;;;;;;0.63;0.40;;;10.90;99.90;;;;;;4992972;28;20041;-77
2023/12/26 01:15:41;;;;;;;0.40;0.40;;;10.90;99.90;;;;;;4985861;28;20053;-77
2023/12/26 01:18:08;;;;;;;2.60;0.50;;;10.80;99.90;;;;;;5023146;28;20107;-78
2023/12/26 01:20:37;;;;;;;0.57;0.50;;;10.80;99.90;;;;;;5030402;28;20057;-77
2023/12/26 01:23:04;;;;;;;0.70;0.70;;;10.70;99.90;;;;;;5032393;28;20044;-79
2023/12/26 01:25:32;;;;;;;1.17;0.68;;;10.60;99.90;;;;;;5025238;28;20140;-79
2023/12/26 01:27:59;;;;;;;0.80;0.80;;;10.60;99.90;;;;;;5026543;28;20049;-78
2023/12/26 01:30:26;;;;;;;1.58;0.80;;;10.60;99.90;;;;;;5032795;28;20049;-78
2023/12/26 01:32:53;;;;;;;1.52;1.25;;;10.60;99.90;;;;;;5027306;28;20067;-78
2023/12/26 01:35:21;;;;;;;2.08;1.20;;;10.60;99.90;;;;;;5028756;28;20044;-79
2023/12/26 01:37:47;;;;;;;1.17;1.00;;;10.50;99.90;;;;;;5029239;28;20041;-79
2023/12/26 01:40:15;;;;;;;0.80;0.73;;;10.50;99.90;;;;;;4991347;28;20065;-79
2023/12/26 01:42:42;;;;;;;2.00;1.77;;;10.40;99.90;;;;;;5023812;28;20103;-78
2023/12/26 01:45:09;;;;;;;2.10;1.90;;;10.40;99.90;;;;;;5027689;28;20040;-78
2023/12/26 01:47:37;;;;;;;2.25;1.92;;;10.40;99.90;;;;;;5001848;28;20045;-78
2023/12/26 01:50:05;;;;;;;3.85;2.25;;;10.40;99.90;;;;;;5006419;28;20045;-78
2023/12/26 01:52:35;;;;;;;4.10;3.00;;;10.40;99.90;;;;;;5029553;28;20047;-79
2023/12/26 01:55:02;;;;;;;3.53;3.00;;;10.40;99.90;;;;;;5003526;28;20048;-78
2023/12/26 01:57:32;;;;;;;3.20;2.08;;;10.30;99.90;;;;;;5033810;28;20582;-78
2023/12/26 02:00:01;;;;;;;3.15;2.85;;;10.40;99.90;;;;;;5011280;28;20045;-77
2023/12/26 02:02:38;;;;;;;3.80;3.17;;;10.40;99.90;;;;;;5021865;28;20055;-78
2023/12/26 02:05:06;;;;;;;3.60;2.83;;;10.30;99.90;;;;;;5027869;28;20056;-76
2023/12/26 02:07:33;;;;;;;3.55;3.22;;;10.30;99.90;;;;;;4996295;28;20099;-79
2023/12/26 02:10:03;;;;;;;4.68;4.18;;;10.40;99.90;;;;;;5025165;28;20565;-77
2023/12/26 02:12:30;;;;;;;4.07;3.67;;;10.30;99.90;;;;;;5022394;28;20095;-79
2023/12/26 02:14:58;;;;;;;4.80;4.00;;;10.30;99.90;;;;;;5030247;28;20696;-77
2023/12/26 02:17:26;;;;;;;4.57;4.18;;;10.30;99.90;;;;;;5007977;28;20098;-78
2023/12/26 02:19:53;;;;;;;6.75;4.28;;;10.30;99.90;;;;;;5033384;28;20043;-79
2023/12/26 02:22:21;;;;;;;4.32;3.92;;;10.20;99.90;;;;;;5006765;28;21257;-78
2023/12/26 02:24:48;;;;;;;5.03;3.60;;;10.20;99.90;;;;;;5022462;28;20046;-79
2023/12/26 02:27:22;;;;;;;3.88;3.53;;;10.20;99.90;;;;;;5009365;28;20553;-77
2023/12/26 02:29:52;;;;;;;4.72;4.00;;;10.20;99.90;;;;;;5029901;28;20061;-78
2023/12/26 02:32:22;;;;;;;4.43;3.85;;;10.20;99.90;;;;;;5011971;28;20048;-79
2023/12/26 02:34:54;;;;;;;5.00;4.50;;;10.20;99.90;;;;;;5012011;28;20202;-78
2023/12/26 02:37:25;;;;;;;4.90;4.40;;;10.20;99.90;;;;;;5024485;28;20068;-78
2023/12/26 02:39:52;;;;;;;5.47;4.72;;;10.20;99.90;;;;;;5023351;28;20041;-79
2023/12/26 02:42:21;;;;;;;5.82;4.25;;;10.20;99.90;;;;;;4997543;28;20127;-79
2023/12/26 02:44:48;;;;;;;7.85;5.03;;;10.20;99.90;;;;;;5005665;28;20121;-79
2023/12/26 02:47:15;;;;;;;4.30;3.90;;;10.10;99.90;;;;;;5013503;28;20050;-78
2023/12/26 02:49:42;;;;;;;3.45;3.08;;;10.10;99.90;;;;;;5023627;28;20136;-77
2023/12/26 02:52:09;;;;;;;4.97;3.78;;;10.10;99.90;;;;;;5007560;28;20044;-77
2023/12/26 02:54:36;;;;;;;2.95;2.60;;;10.10;99.90;;;;;;5023313;28;20048;-76
2023/12/26 02:57:03;;;;;;;3.25;2.53;;;10.10;99.90;;;;;;5023425;28;20053;-76
2023/12/26 02:59:30;;;;;;;1.80;1.70;;;10.10;99.90;;;;;;5028778;28;20135;-77
2023/12/26 03:02:00;;;;;;;1.65;1.55;;;10.20;99.90;;;;;;5028255;28;20048;-76
2023/12/26 03:04:27;;;;;;;2.15;1.92;;;10.10;99.90;;;;;;5009025;28;20052;-77
2023/12/26 03:06:54;;;;;;;1.20;1.08;;;10.20;99.90;;;;;;5022016;28;20684;-77
2023/12/26 03:09:22;;;;;;;2.92;1.60;;;10.10;99.90;;;;;;5010933;28;20111;-77
2023/12/26 03:11:49;;;;;;;0.95;0.90;;;10.10;99.90;;;;;;5025519;28;20037;-77
2023/12/26 03:14:16;;;;;;;1.60;1.00;;;10.10;99.90;;;;;;5024501;28;20049;-79
2023/12/26 03:16:43;;;;;;;0.77;0.77;;;10.10;99.90;;;;;;5024770;28;20052;-78
2023/12/26 03:19:09;;;;;;;1.10;0.80;;;10.10;99.90;;;;;;5006844;28;20048;-76
2023/12/26 03:21:36;;;;;;;0.70;0.70;;;10.10;99.90;;;;;;5002160;28;20051;-76
2023/12/26 03:24:03;;;;;;;0.65;0.65;;;10.10;99.90;;;;;;5016986;28;20131;-77
2023/12/26 03:26:30;;;;;;;0.80;0.80;;;10.10;99.90;;;;;;5041012;28;20128;-77
2023/12/26 03:28:57;;;;;;;0.60;0.60;;;10.10;99.90;;;;;;5059232;28;20045;-77
2023/12/26 03:31:24;;;;;;;0.50;0.50;;;10.10;99.90;;;;;;5028113;28;20054;-77
2023/12/26 03:33:51;;;;;;;0.88;0.70;;;10.10;99.90;;;;;;5022930;28;20044;-77
2023/12/26 03:36:19;;;;;;;0.60;0.55;;;10.10;99.90;;;;;;5024578;28;20045;-78
2023/12/26 03:38:46;;;;;;;0.95;0.75;;;10.10;99.90;;;;;;5025529;28;20072;-78
2023/12/26 03:41:13;;;;;;;0.70;0.60;;;10.00;99.90;;;;;;5015208;28;20624;-77
2023/12/26 03:43:40;;;;;;;2.15;0.95;;;10.00;99.90;;;;;;5007790;28;20040;-76
2023/12/26 03:46:07;;;;;;;0.80;0.80;;;10.00;99.90;;;;;;5019450;28;20592;-75
2023/12/26 03:48:34;;;;;;;1.45;0.80;;;10.00;99.90;;;;;;5026808;28;20136;-78
2023/12/26 03:51:02;;;;;;;0.60;0.60;;;10.00;99.90;;;;;;5023922;28;20145;-78
2023/12/26 03:53:29;;;;;;;0.63;0.63;;;10.00;99.90;;;;;;5007077;28;20571;-76
2023/12/26 03:55:56;;;;;;;0.70;0.70;;;10.00;99.90;;;;;;5028221;28;20069;-77
2023/12/26 03:58:23;;;;;;;0.50;0.50;;;10.00;99.90;;;;;;5021170;28;20076;-77
2023/12/26 04:00:50;;;;;;;0.98;0.60;;;10.00;99.90;;;;;;5015935;28;20091;-77
2023/12/26 04:03:18;;;;;;;1.35;0.60;;;9.90;99.90;;;;;;5016798;28;20080;-77
2023/12/26 04:05:45;;;;;;;0.60;0.60;;;10.00;99.90;;;;;;5019429;28;20045;-77
2023/12/26 04:08:12;;;;;;;0.50;0.50;;;10.00;99.90;;;;;;5011549;28;20044;-79
2023/12/26 04:10:39;;;;;;;0.70;0.70;;;10.00;99.90;;;;;;5034085;28;20056;-76
2023/12/26 04:13:05;;;;;;;0.60;0.60;;;9.90;99.90;;;;;;5010443;28;20419;-76
2023/12/26 04:15:33;;;;;;;0.70;0.70;;;10.00;99.90;;;;;;5031589;28;20048;-78
2023/12/26 04:18:02;;;;;;;1.83;0.57;;;10.00;99.90;;;;;;5029300;28;20048;-78
2023/12/26 04:20:29;;;;;;;0.50;0.50;;;10.00;99.90;;;;;;5005047;28;20079;-77
2023/12/26 04:22:56;;;;;;;1.95;0.90;;;9.90;99.90;;;;;;5018297;28;20471;-77
2023/12/26 04:25:23;;;;;;;1.58;0.60;;;9.90;99.90;;;;;;5016205;28;20061;-78
2023/12/26 04:27:50;;;;;;;0.50;0.50;;;10.00;99.90;;;;;;5028368;28;20045;-76
2023/12/26 04:30:17;;;;;;;0.57;0.57;;;10.00;99.90;;;;;;5044054;28;20037;-78
2023/12/26 04:32:45;;;;;;;0.60;0.60;;;10.00;99.90;;;;;;5039148;28;20041;-75
2023/12/26 04:35:12;;;;;;;0.60;0.60;;;10.00;99.90;;;;;;5031309;28;20034;-79
2023/12/26 04:37:39;;;;;;;0.82;0.70;;;10.00;99.90;;;;;;5015518;28;20515;-77
2023/12/26 04:40:07;;;;;;;0.60;0.60;;;10.00;99.90;;;;;;4998482;28;20444;-78
2023/12/26 04:42:34;;;;;;;0.68;0.68;;;10.00;99.90;;;;;;4985503;28;20467;-78
2023/12/26 04:45:02;;;;;;;1.05;0.80;;;10.00;99.90;;;;;;5028462;28;20075;-77
2023/12/26 04:47:28;;;;;;;0.60;0.60;;;10.00;99.90;;;;;;5010407;28;20532;-78
2023/12/26 04:49:57;;;;;;;1.10;0.63;;;10.10;99.90;;;;;;5041652;28;20041;-77
2023/12/26 04:52:23;;;;;;;0.50;0.50;;;10.00;99.90;;;;;;5018223;28;20107;-78
2023/12/26 04:54:50;;;;;;;0.52;0.40;;;10.00;99.90;;;;;;5019617;28;20048;-77
2023/12/26 04:57:18;;;;;;;0.70;0.60;;;10.00;99.90;;;;;;5009024;28;20526;-78
2023/12/26 04:59:44;;;;;;;0.88;0.88;;;10.00;99.90;;;;;;5028172;28;20643;-78
2023/12/26 05:02:12;;;;;;;0.90;0.90;;;9.90;99.90;;;;;;5010968;28;20048;-77
2023/12/26 05:04:41;;;;;;;1.17;0.98;;;10.00;99.90;;;;;;5063811;28;20049;-78
2023/12/26 05:07:09;;;;;;;0.70;0.70;;;10.00;99.90;;;;;;5022285;28;20658;-77
2023/12/26 05:09:35;;;;;;;2.70;1.00;;;9.90;99.90;;;;;;5049363;28;20410;-79
2023/12/26 05:12:03;;;;;;;1.88;1.08;;;9.90;99.90;;;;;;5024624;28;20037;-78
2023/12/26 05:14:30;;;;;;;1.00;0.90;;;9.90;99.90;;;;;;5012804;28;20045;-79
2023/12/26 05:16:57;;;;;;;0.65;0.60;;;9.90;99.90;;;;;;5023146;28;20688;-78
2023/12/26 05:19:24;;;;;;;0.77;0.60;;;9.90;99.90;;;;;;5026614;28;20052;-79
2023/12/26 05:21:52;;;;;;;1.30;0.82;;;9.90;99.90;;;;;;5028245;28;20061;-78
2023/12/26 05:24:21;;;;;;;0.68;0.60;;;9.90;99.90;;;;;;5025151;28;20077;-78
2023/12/26 05:26:48;;;;;;;0.80;0.80;;;9.90;99.90;;;;;;5028813;28;20133;-79
2023/12/26 05:29:16;;;;;;;0.80;0.73;;;9.90;99.90;;;;;;5031141;28;20147;-78
2023/12/26 05:31:42;;;;;;;1.15;0.88;;;9.90;99.90;;;;;;5016451;28;20510;-78
2023/12/26 05:34:11;;;;;;;1.88;0.80;;;9.90;99.90;;;;;;5029466;28;20471;-80
2023/12/26 05:36:38;;;;;;;2.67;0.82;;;9.90;99.90;;;;;;5064291;28;20079;-79
2023/12/26 05:39:07;;;;;;;0.80;0.80;;;9.90;99.90;;;;;;5012422;28;20051;-79
2023/12/26 05:41:34;;;;;;;0.80;0.70;;;9.80;99.90;;;;;;5024162;28;20581;-79
2023/12/26 05:44:02;;;;;;;0.90;0.75;;;9.80;99.90;;;;;;5015296;28;20049;-77
2023/12/26 05:46:29;;;;;;;1.45;0.40;;;9.80;99.90;;;;;;5007547;28;20095;-77
2023/12/26 05:48:58;;;;;;;1.05;0.50;;;9.70;99.90;;;;;;5007422;28;20727;-77
2023/12/26 05:51:26;;;;;;;0.47;0.40;;;9.70;99.90;;;;;;4995958;28;20045;-79
2023/12/26 05:53:53;;;;;;;0.98;0.55;;;9.70;99.90;;;;;;5010622;28;20048;-79
2023/12/26 05:56:22;;;;;;;2.75;1.00;;;9.60;99.90;;;;;;5006198;28;20044;-76
2023/12/26 05:58:48;;;;;;;1.98;0.85;;;9.60;99.90;;;;;;5024339;28;20129;-77
2023/12/26 06:01:15;;;;;;;1.92;1.10;;;9.60;99.90;;;;;;5019748;28;20049;-77
2023/12/26 06:03:42;;;;;;;2.97;1.27;;;9.60;99.90;;;;;;5025801;28;20057;-79
2023/12/26 06:06:11;;;;;;;4.25;1.02;;;9.60;99.90;;;;;;5008869;28;20046;-78
2023/12/26 06:08:40;;;;;;;1.50;1.00;;;9.60;99.90;;;;;;5012943;28;20053;-78
2023/12/26 06:11:10;;;;;;;5.28;1.30;;;9.50;99.90;;;;;;5012966;28;20042;-78
2023/12/26 06:13:38;;;;;;;2.08;1.25;;;9.50;99.90;;;;;;5025180;28;20160;-77
2023/12/26 06:16:05;;;;;;;1.90;1.50;;;9.50;99.90;;;;;;5013364;28;20033;-78
2023/12/26 06:18:33;;;;;;;2.30;1.92;;;9.50;99.90;;;;;;5028203;28;21625;-78
2023/12/26 06:21:01;;;;;;;5.75;2.80;;;9.50;99.90;;;;;;5020238;28;20049;-77
2023/12/26 06:23:27;;;;;;;3.95;2.35;;;9.50;99.90;;;;;;5024450;28;20098;-79
2023/12/26 06:25:56;;;;;;;6.07;2.65;;;9.50;99.90;;;;;;5003884;28;20320;-76
2023/12/26 06:28:24;;;;;;;6.47;3.15;;;9.40;99.90;;;;;;5009790;28;20304;-79
2023/12/26 06:30:51;;;;;;;5.95;3.78;;;9.40;99.90;;;;;;5022905;28;20106;-78
2023/12/26 06:33:19;;;;;;;5.35;3.80;;;9.40;99.90;;;;;;5017725;28;20046;-78
2023/12/26 06:35:46;;;;;;;6.47;4.32;;;9.40;99.90;;;;;;5028064;28;20049;-79
2023/12/26 06:38:13;;;;;;;9.50;3.92;;;9.40;99.90;;;;;;5025660;28;20041;-77
2023/12/26 06:40:42;;;;;;;7.63;4.40;;;9.40;99.90;;;;;;5001799;28;20865;-78
2023/12/26 06:43:14;;;;;;;6.18;3.63;;;9.50;99.90;;;;;;5016201;28;20053;-77
2023/12/26 06:45:41;;;;;;;7.20;3.78;;;9.40;99.90;;;;;;5009647;28;20056;-77
2023/12/26 06:48:08;;;;;;;5.28;4.07;;;9.30;99.90;;;;;;5005688;28;20595;-78
2023/12/26 06:50:37;;;;;;;6.93;3.95;;;9.30;99.90;;;;;;5020443;28;20102;-78
2023/12/26 06:53:04;;;;;;;9.95;3.97;;;9.40;99.90;;;;;;5032373;28;20072;-80
2023/12/26 06:55:31;;;;;;;7.53;3.85;;;9.30;99.90;;;;;;5017735;28;20072;-79
2023/12/26 06:57:58;;;;;;;11.63;4.28;;;9.40;99.90;;;;;;5015924;28;20049;-79
2023/12/26 07:00:25;;;;;;;7.40;4.00;;;9.30;99.90;;;;;;5005105;28;20613;-78
2023/12/26 07:02:54;;;;;;;5.65;4.75;;;9.30;99.90;;;;;;4996207;28;20049;-79
2023/12/26 07:05:23;;;;;;;8.50;4.57;;;9.30;99.90;;;;;;4985070;28;21619;-77
2023/12/26 07:07:51;;;;;;;6.85;3.95;;;9.30;99.90;;;;;;5007152;28;20053;-80
2023/12/26 07:10:17;;;;;;;7.00;3.80;;;9.30;99.90;;;;;;5009594;28;20060;-77
2023/12/26 07:12:44;;;;;;;10.07;4.55;;;9.20;99.90;;;;;;5006104;28;21106;-78
2023/12/26 07:15:15;;;;;;;4.72;3.83;;;9.30;99.90;;;;;;5022687;28;20062;-77
2023/12/26 07:17:42;;;;;;;9.55;3.90;;;9.20;99.90;;;;;;5027960;28;20044;-80
2023/12/26 07:20:10;;;;;;;6.40;3.38;;;9.20;99.90;;;;;;5019941;28;20045;-78
2023/12/26 07:22:37;;;;;;;9.20;3.53;;;9.10;99.90;;;;;;5021967;28;20052;-80
2023/12/26 07:25:04;;;;;;;10.40;4.00;;;9.10;99.90;;;;;;5028864;28;20037;-78
2023/12/26 07:27:32;;;;;;;8.23;4.22;;;9.10;99.90;;;;;;5007690;28;20072;-78
2023/12/26 07:29:59;;;;;;;7.15;3.80;;;9.00;99.90;;;;;;5024667;28;20042;-78
2023/12/26 07:32:26;;;;;;;7.15;3.53;;;9.00;99.90;;;;;;5015630;28;20069;-77
2023/12/26 07:34:53;;;;;;;5.88;4.03;;;9.00;99.90;;;;;;5042940;28;20049;-80
2023/12/26 07:37:19;;;;;;;7.20;4.28;;;9.00;99.90;;;;;;5035946;28;20037;-78
2023/12/26 07:39:46;;;;;;;4.72;3.60;;;9.00;99.90;;;;;;5045861;28;20045;-79
2023/12/26 07:42:13;;;;;;;7.00;3.55;;;9.10;99.90;;;;;;5049654;28;20060;-78
2023/12/26 07:44:40;;;;;;;4.70;3.90;;;9.10;99.90;;;;;;5029378;28;20045;-77
2023/12/26 07:47:07;;;;;;;5.18;4.50;;;9.10;99.90;;;;;;5051638;28;20056;-78
2023/12/26 07:49:33;;;;;;;5.82;5.20;;;9.00;99.90;;;;;;5055698;28;20028;-78
2023/12/26 07:52:00;;;;;;;4.38;3.97;;;9.00;99.90;;;;;;5056555;28;20100;-79
2023/12/26 07:54:27;;;;;;;5.78;4.30;;;9.00;99.90;;;;;;5050855;28;20101;-79
2023/12/26 07:56:54;;;;;;;5.68;4.13;;;8.90;99.90;;;;;;5049127;28;20052;-78
2023/12/26 07:59:21;;;;;;;12.13;4.20;;;8.90;99.90;;;;;;5049908;28;20081;-77
2023/12/26 08:01:47;;;;;;;5.25;4.20;;;8.90;99.90;;;;;;5049328;28;20044;-77
2023/12/26 08:04:14;;;;;;;11.05;6.47;;;8.80;99.90;;;;;;5054326;28;20029;-77
2023/12/26 08:06:41;;;;;;;6.03;4.40;;;8.80;99.90;;;;;;5052274;28;20065;-77
2023/12/26 08:09:08;;;;;;;6.15;5.03;;;8.70;99.90;;;;;;5036019;28;20246;-77
2023/12/26 08:11:35;;;;;;;6.53;5.20;;;8.80;99.90;;;;;;5051979;28;20044;-76
2023/12/26 08:14:02;;;;;;;7.97;4.80;;;8.70;99.90;;;;;;5051893;28;20056;-78
2023/12/26 08:16:30;;;;;;;6.75;5.82;;;8.70;99.90;;;;;;5031446;28;20048;-78
2023/12/26 08:18:58;;;;;;;9.90;7.15;;;8.70;99.90;;;;;;5034889;28;20056;-79
2023/12/26 08:21:25;;;;;;;17.13;6.90;;;8.70;99.90;;;;;;5048206;28;20046;-78
2023/12/26 08:23:52;;;;;;;7.57;6.05;;;8.70;99.90;;;;;;5046697;28;20057;-78
2023/12/26 08:26:19;;;;;;;11.90;6.13;;;8.70;99.90;;;;;;5052548;28;20083;-78
2023/12/26 08:28:47;;;;;;;8.07;5.78;;;8.60;99.90;;;;;;5051186;28;20056;-77
2023/12/26 08:31:15;;;;;;;13.50;6.30;;;8.70;99.90;;;;;;5046411;28;20060;-78
2023/12/26 08:33:42;;;;;;;6.20;5.60;;;8.60;99.90;;;;;;5045950;28;20449;-79
2023/12/26 08:36:09;;;;;;;6.38;5.75;;;8.70;99.90;;;;;;5042642;28;20123;-78
2023/12/26 08:38:36;;;;;;;7.38;5.28;;;8.60;99.90;;;;;;5073261;28;20033;-79
2023/12/26 08:41:05;;;;;;;9.85;5.95;;;8.70;99.90;;;;;;5047042;28;20041;-79
2023/12/26 08:43:32;;;;;;;7.90;6.13;;;8.70;99.90;;;;;;5050678;28;20048;-79
2023/12/26 08:45:59;;;;;;;11.68;6.40;;;8.70;99.90;;;;;;5016664;28;20172;-78
2023/12/26 08:48:26;;;;;;;29.15;6.63;;;8.70;99.90;;;;;;5012393;28;20053;-78
2023/12/26 08:50:53;;;;;;;10.73;6.53;;;8.60;99.90;;;;;;5027776;28;20076;-78
2023/12/26 08:53:20;;;;;;;13.23;7.03;;;8.60;99.90;;;;;;5053933;28;20045;-78
2023/12/26 08:55:47;;;;;;;11.88;6.05;;;8.50;99.90;;;;;;5064316;28;20095;-78
2023/12/26 08:58:14;;;;;;;9.00;6.57;;;8.50;99.90;;;;;;5055748;28;20112;-78
2023/12/26 09:00:41;;;;;;;11.32;6.55;;;8.50;99.90;;;;;;5067619;28;20049;-78
2023/12/26 09:03:08;;;;;;;8.43;6.45;;;8.40;99.90;;;;;;5057566;28;20037;-78
2023/12/26 09:05:36;;;;;;;10.88;6.45;;;8.40;99.90;;;;;;5031509;28;20112;-79
2023/12/26 09:08:03;;;;;;;7.35;6.50;;;8.50;99.90;;;;;;5053588;28;20041;-78
2023/12/26 09:10:30;;;;;;;10.85;7.60;;;8.50;99.90;;;;;;5037656;28;20049;-78
2023/12/26 09:12:56;;;;;;;8.40;7.43;;;8.50;99.90;;;;;;5052085;28;20070;-78
2023/12/26 09:15:24;;;;;;;11.15;7.15;;;8.50;99.90;;;;;;5039739;28;20487;-79
2023/12/26 09:17:51;;;;;;;9.57;8.52;;;8.40;99.90;;;;;;5048395;28;20099;-78
2023/12/26 09:20:18;;;;;;;8.00;7.40;;;8.40;99.90;;;;;;5050341;28;20029;-79
2023/12/26 09:22:45;;;;;;;8.98;8.02;;;8.50;99.90;;;;;;5062433;28;20057;-79
2023/12/26 09:25:13;;;;;;;8.88;8.07;;;8.50;99.90;;;;;;5050866;28;20136;-79
2023/12/26 09:27:42;;;;;;;11.15;8.02;;;8.50;99.90;;;;;;5024969;28;20510;-80
2023/12/26 09:30:09;;;;;;;10.05;7.80;;;8.50;99.90;;;;;;5053058;28;20044;-80
2023/12/26 09:32:36;;;;;;;9.57;8.10;;;8.50;99.90;;;;;;5052459;28;20334;-80
2023/12/26 09:35:04;;;;;;;10.85;8.45;;;8.50;99.90;;;;;;5040707;28;20113;-80
2023/12/26 09:37:34;;;;;;;8.80;7.63;;;8.50;99.90;;;;;;5045568;28;20110;-77
2023/12/26 09:40:05;;;;;;;9.10;8.38;;;8.60;99.90;;;;;;5049595;28;20100;-79
2023/12/26 09:42:31;;;;;;;14.48;8.48;;;8.60;99.90;;;;;;5039813;28;20045;-79
2023/12/26 09:44:59;;;;;;;14.63;9.77;;;8.60;99.90;;;;;;5044893;28;20047;-79
2023/12/26 09:47:27;;;;;;;16.70;15.68;;;8.70;99.90;;;;;;5029383;28;20049;-81
2023/12/26 09:49:54;;;;;;;14.27;13.38;;;8.60;99.90;;;;;;5015248;28;20044;-81
2023/12/26 09:52:22;;;;;;;19.05;14.07;;;8.50;99.90;;;;;;5045376;28;20499;-80
2023/12/26 09:54:51;;;;;;;15.75;14.60;;;8.50;99.90;;;;;;5080758;28;20061;-81
2023/12/26 09:57:18;;;;;;;15.30;14.00;;;8.50;99.90;;;;;;5049601;28;20045;-81
2023/12/26 09:59:47;;;;;;;15.02;13.80;;;8.40;99.90;;;;;;5033103;28;20045;-80
2023/12/26 10:02:14;;;;;;;15.75;14.48;;;8.30;99.90;;;;;;5053728;28;20086;-80
2023/12/26 10:04:41;;;;;;;14.60;13.15;;;8.30;99.90;;;;;;5052957;28;20135;-80
2023/12/26 10:07:14;;;;;;;17.15;13.48;;;8.40;99.90;;;;;;5019425;28;20037;-81
2023/12/26 10:09:42;;;;;;;13.35;12.02;;;8.30;99.90;;;;;;5037713;28;20072;-81
2023/12/26 10:12:09;;;;;;;18.77;13.15;;;8.30;99.90;;;;;;5037797;28;20041;-81
2023/12/26 10:14:36;;;;;;;15.77;14.23;;;8.40;99.90;;;;;;5042067;28;20072;-80
2023/12/26 10:17:06;;;;;;;14.38;13.05;;;8.60;99.90;;;;;;5047362;28;20040;-79
2023/12/26 10:19:32;;;;;;;18.67;16.88;;;8.80;99.90;;;;;;5014245;28;20129;-80
2023/12/26 10:22:02;;;;;;;21.48;19.55;;;9.00;99.90;;;;;;5030924;28;20063;-81
2023/12/26 10:24:29;;;;;;;15.35;13.95;;;9.10;99.90;;;;;;5032516;28;20029;-80
2023/12/26 10:26:59;;;;;;;16.33;15.25;;;9.10;99.90;;;;;;5042745;28;20676;-80
2023/12/26 10:29:26;;;;;;;17.17;15.48;;;9.20;99.90;;;;;;5021978;28;20115;-79
2023/12/26 10:31:53;;;;;;;18.83;16.55;;;9.20;99.90;;;;;;5004313;28;20044;-80
2023/12/26 10:34:20;;;;;;;21.95;19.90;;;9.20;99.90;;;;;;5044574;28;20049;-81
2023/12/26 10:36:48;;;;;;;21.42;19.65;;;9.20;99.90;;;;;;5022548;28;21191;-81
2023/12/26 10:39:17;;;;;;;18.63;17.13;;;9.00;99.90;;;;;;5016372;28;20061;-80
2023/12/26 10:41:45;;;;;;;22.33;20.15;;;9.00;99.90;;;;;;5030990;28;20139;-80
2023/12/26 10:44:17;;;;;;;23.48;21.38;;;8.90;99.90;;;;;;5023975;28;20045;-79
2023/12/26 10:46:49;;;;;;;24.50;23.00;;;8.90;99.90;;;;;;5034295;28;20060;-80
2023/12/26 10:49:23;;;;;;;23.33;20.88;;;8.90;99.90;;;;;;5027620;28;20061;-79
2023/12/26 10:51:52;;;;;;;24.20;22.63;;;8.90;99.90;;;;;;5017809;28;20079;-80
2023/12/26 10:54:20;;;;;;;23.20;21.20;;;8.90;99.90;;;;;;5032568;28;20060;-79
2023/12/26 10:56:49;;;;;;;23.63;20.20;;;8.90;99.90;;;;;;5008542;28;20049;-79
2023/12/26 13:53:52;;;;;;;24.52;22.25;;;8.80;99.90;;;;;;5032881;28;20052;-78
2023/12/26 13:56:56;;;;;;;25.10;22.98;;;8.70;99.90;;;;;;5025920;28;20115;-77
2023/12/26 14:00:00;;;;;;;21.95;20.45;;;8.50;99.90;;;;;;5020552;28;20059;-78
2023/12/26 14:03:15;;;;;;;21.90;19.77;;;8.50;99.90;;;;;;5031324;28;20102;-78
2023/12/26 14:06:20;;;;;;;22.70;20.95;;;8.50;99.90;;;;;;5009674;28;20061;-77
2023/12/26 14:09:24;;;;;;;23.08;21.13;;;8.50;99.90;;;;;;5027235;28;20053;-78
2023/12/26 14:12:29;;;;;;;21.42;19.67;;;8.50;99.90;;;;;;5027067;28;20607;-78
2023/12/26 14:15:33;;;;;;;22.55;20.70;;;8.50;99.90;;;;;;5059945;28;20045;-77
2023/12/26 14:18:38;;;;;;;23.35;21.40;;;8.50;99.90;;;;;;5061235;28;20037;-77
2023/12/26 14:21:43;;;;;;;28.98;21.25;;;8.40;99.90;;;;;;5031724;28;20080;-78
2023/12/26 14:24:47;;;;;;;22.20;20.52;;;8.40;99.90;;;;;;5062160;28;20037;-78
2023/12/26 14:27:52;;;;;;;24.35;22.05;;;8.50;99.90;;;;;;5021126;28;20037;-77
2023/12/26 14:30:56;;;;;;;25.38;23.25;;;8.50;99.90;;;;;;5027851;28;20056;-77
2023/12/26 14:34:00;;;;;;;24.80;22.25;;;8.50;99.90;;;;;;5025040;28;20076;-77
2023/12/26 14:37:05;;;;;;;25.50;23.13;;;8.40;99.90;;;;;;5015885;28;20068;-77
2023/12/26 14:40:09;;;;;;;22.92;21.08;;;8.40;99.90;;;;;;5030175;28;20411;-76
2023/12/26 14:43:14;;;;;;;21.83;15.88;;;8.40;99.90;;;;;;5027311;28;20107;-77
2023/12/26 14:46:19;;;;;;;21.20;17.15;;;8.40;99.90;;;;;;5027147;28;20045;-77
2023/12/26 14:49:23;;;;;;;17.27;15.63;;;8.30;99.90;;;;;;5025017;28;20653;-74
2023/12/26 14:52:28;;;;;;;18.73;16.85;;;8.30;99.90;;;;;;5020633;28;20041;-76
2023/12/26 14:55:32;;;;;;;17.90;16.20;;;8.30;99.90;;;;;;5031325;28;20574;-76
2023/12/26 14:58:37;;;;;;;21.52;16.42;;;8.30;99.90;;;;;;5011499;28;20045;-77
2023/12/26 15:01:41;;;;;;;18.27;16.20;;;8.30;99.90;;;;;;5028163;28;20037;-77
2023/12/26 15:04:09;;;;;;;18.27;16.55;;;8.30;99.90;;;;;;5024403;28;20037;-76
2023/12/26 15:06:36;;;;;;;20.48;17.23;;;8.20;99.90;;;;;;5030422;28;20041;-77
2023/12/26 15:09:03;;;;;;;19.15;17.60;;;8.30;99.90;;;;;;4995903;28;20052;-77
2023/12/26 15:11:30;;;;;;;18.65;17.30;;;8.20;99.90;;;;;;5027559;28;20064;-76
2023/12/26 15:13:57;;;;;;;18.10;16.70;;;8.30;99.90;;;;;;5015870;28;20476;-76
2023/12/26 15:16:44;;;;;;;19.33;17.35;;;8.20;99.90;;;;;;5026568;28;20064;-77
2023/12/26 15:19:11;;;;;;;20.23;18.20;;;8.20;99.90;;;;;;5035959;28;20490;-76
2023/12/26 15:21:44;;;;;;;22.80;18.10;;;8.20;99.90;;;;;;4986476;28;20087;-76
2023/12/26 15:24:12;;;;;;;19.80;17.27;;;8.20;99.90;;;;;;4980141;28;20056;-78
2023/12/26 15:26:39;;;;;;;17.85;16.45;;;8.10;99.90;;;;;;5010803;28;20049;-78
2023/12/26 15:29:06;;;;;;;18.75;16.77;;;8.10;99.90;;;;;;5035460;28;20057;-78
2023/12/26 15:31:33;;;;;;;25.23;17.63;;;8.10;99.90;;;;;;5014521;28;20057;-78
2023/12/26 15:34:01;;;;;;;23.40;21.08;;;8.10;99.90;;;;;;5009391;28;20056;-79
2023/12/26 15:36:28;;;;;;;26.33;17.48;;;8.10;99.90;;;;;;5012707;28;20570;-79
2023/12/26 15:38:55;;;;;;;18.98;17.30;;;8.10;99.90;;;;;;5023726;28;20157;-79
2023/12/26 15:41:24;;;;;;;17.77;15.88;;;8.10;99.90;;;;;;5012267;28;20714;-80
2023/12/26 15:43:54;;;;;;;19.00;16.98;;;8.10;99.90;;;;;;5033084;28;20613;-80
2023/12/26 15:46:25;;;;;;;26.65;18.58;;;8.10;99.90;;;;;;5039590;28;20052;-79
2023/12/26 15:48:52;;;;;;;17.65;15.20;;;8.10;99.90;;;;;;5038068;28;20049;-80
2023/12/26 15:51:21;;;;;;;21.67;16.88;;;8.10;99.90;;;;;;5051501;28;20071;-79
2023/12/26 15:53:49;;;;;;;18.02;16.17;;;8.10;99.90;;;;;;5054033;28;20037;-79
2023/12/26 15:56:20;;;;;;;20.15;15.52;;;8.00;99.90;;;;;;5058350;28;20130;-79
2023/12/26 15:58:48;;;;;;;19.95;16.35;;;8.00;99.90;;;;;;5031616;28;20157;-78